메인 페이지
METAR-TAF:

METAR-TAF

공항 :

콜럼버스, 미시시피, 미국

위도: 33-39N, 경도: 088-27W, 고도: 67m

현재 날씨관측

예보는 44분 전, 18:01시(UTC)에 발표되었습니다.
무풍
온도 30°C
습도 62%
기압 1019 hPa
시정: 16.1km
고도 3400ft 상공 구름 보통

METAR: KCBM 251801Z AUTO 00000KT 10SM SCT034 30/22 A3008 RMK AO2 SLP187

시각: 13:45 (18:45 UTC)

예보

예보는 1 시간 45분 전, 17:00시(UTC)에 발표되었습니다.
예보 대상 시간: 25일 17시부터 26일 23시까지 (UTC)
여러 방향의 바람 6kt
시정 10km 이상
고도 25000ft 상공 구름 조금
전환 중
26일 00시부터 26일 01시까지 (UTC)
여러 방향의 바람 6kt
시정: 8000m
고도 3000ft 상공 구름 많음, 적란운.
약한소나기, 시계 내 뇌우
전환 중
26일 04시부터 26일 05시까지 (UTC)
여러 방향의 바람 6kt
시정 10km 이상
고도 3000ft 상공 구름 보통
전환 중
26일 10시부터 26일 11시까지 (UTC)
여러 방향의 바람 6kt
시정: 8000m
고도 4000ft 상공 구름 많음, 적란운.
약한소나기, 시계 내 뇌우
전환 중
26일 15시부터 26일 16시까지 (UTC)
여러 방향의 바람 6kt
시정 10km 이상
고도 4000ft 상공 구름 보통
고도 6000ft 상공 구름 많음

TAF: KCBM 251700Z 2517/2623 VRB06KT 9999 FEW250 QNH3002INS BECMG 2600/2601 VRB06KT 8000 -SHRA VCTS BKN030CB QNH3004INS BECMG 2604/2605 VRB06KT 9999 NSW SCT030 QNH3009INS BECMG 2610/2611 VRB06KT 8000 -SHRA VCTS BKN040CB QNH3014INS BECMG 2615/2616 VRB06KT 9999 NSW SCT040 BKN060 QNH3008INS TX31/2520Z TN21/2611Z

4,000개 이상의 공항 관측 자료 및 예보 (METAR 및 TAF 보고).

지도상에서 검색 가능한 기상관측소가 노란 점과 빨간 점으로 표시되어 있습니다.

기상관측소 명을 보려면 표시 위로 마우스를 이동하세요.

날씨 관측과 예보를 보려면 클릭하세요.

지도 변경 : 확대하려면 엑스 표시가 있는 녹색 버튼, 축소하려면 빼기 표시가 있는 녹색 버튼, 다음 페이지의 지도를 보려면 녹색 화살표를 클릭하세요.


METAR-TAF: